createdAt,value
2019-05-30T00:00:05.868Z,90.33
2019-05-30T00:01:51.661Z,90.14
2019-05-30T00:02:51.639Z,90.23
2019-05-30T00:03:51.617Z,90.14
2019-05-30T00:04:51.597Z,90.14
2019-05-30T00:05:51.583Z,90.14
2019-05-30T00:06:51.553Z,89.66
2019-05-30T00:07:51.542Z,90.14
2019-05-30T00:08:51.519Z,90.80
2019-05-30T00:09:51.489Z,90.80
2019-05-30T00:10:51.469Z,90.80
2019-05-30T00:11:51.450Z,90.52
2019-05-30T00:12:51.426Z,90.04
2019-05-30T00:13:51.409Z,89.66
2019-05-30T00:14:51.387Z,90.14
2019-05-30T00:15:51.363Z,90.14
2019-05-30T00:16:51.351Z,90.14
2019-05-30T00:17:51.319Z,90.99
2019-05-30T00:18:51.301Z,90.85
2019-05-30T00:19:51.279Z,90.89
2019-05-30T00:20:51.261Z,90.52
2019-05-30T00:21:51.233Z,90.33
2019-05-30T00:22:51.215Z,90.80
2019-05-30T00:23:51.185Z,90.99
2019-05-30T00:24:51.172Z,91.47
2019-05-30T00:25:51.143Z,90.99
2019-05-30T00:26:51.133Z,91.18
2019-05-30T00:27:51.107Z,91.08
2019-05-30T00:28:51.090Z,91.28
2019-05-30T00:29:51.063Z,91.28
2019-05-30T00:30:51.101Z,91.75
2019-05-30T00:31:51.020Z,91.89
2019-05-30T00:32:51.003Z,92.27
2019-05-30T00:33:51.005Z,91.13
2019-05-30T00:34:50.957Z,92.18
2019-05-30T00:35:50.941Z,91.42
2019-05-30T00:36:50.912Z,91.04
2019-05-30T00:37:50.893Z,91.33
2019-05-30T00:38:50.868Z,90.94
2019-05-30T00:39:50.848Z,90.94
2019-05-30T00:40:50.838Z,91.23
2019-05-30T00:41:50.804Z,91.13
2019-05-30T00:42:50.785Z,91.42
2019-05-30T00:43:50.766Z,91.52
2019-05-30T00:44:50.744Z,91.71
2019-05-30T00:45:50.721Z,91.99
2019-05-30T00:46:50.710Z,91.99
2019-05-30T00:47:50.678Z,92.46
2019-05-30T00:48:51.011Z,91.80
2019-05-30T00:49:50.667Z,92.27
2019-05-30T00:50:50.613Z,92.18
2019-05-30T00:51:50.616Z,92.66
2019-05-30T00:52:50.572Z,92.66
2019-05-30T00:53:50.548Z,92.99
2019-05-30T00:54:50.525Z,92.80
2019-05-30T00:55:50.504Z,92.71
2019-05-30T00:56:50.487Z,92.90
2019-05-30T00:57:50.460Z,92.99
2019-05-30T00:58:50.443Z,93.46
2019-05-30T00:59:50.423Z,93.75
2019-05-30T01:00:50.401Z,94.13
2019-05-30T01:01:50.378Z,93.56
2019-05-30T01:02:50.422Z,93.84
2019-05-30T01:03:50.330Z,93.94
2019-05-30T01:04:50.306Z,93.84
2019-05-30T01:05:50.306Z,93.94
2019-05-30T01:06:50.277Z,93.75
2019-05-30T01:07:50.246Z,93.75
2019-05-30T01:08:50.224Z,94.51
2019-05-30T01:09:50.202Z,94.51
2019-05-30T01:10:50.185Z,94.51
2019-05-30T01:11:50.158Z,95.17
2019-05-30T01:12:50.140Z,95.17
2019-05-30T01:13:50.118Z,95.55
2019-05-30T01:14:50.095Z,95.27
2019-05-30T01:15:50.071Z,95.84
2019-05-30T01:16:50.048Z,95.84
2019-05-30T01:17:50.031Z,96.03
2019-05-30T01:18:50.006Z,95.94
2019-05-30T01:19:49.983Z,95.94
2019-05-30T01:20:49.964Z,96.03
2019-05-30T01:21:49.943Z,96.50
2019-05-30T01:22:49.922Z,95.84
2019-05-30T01:23:49.904Z,96.41
2019-05-30T01:24:49.874Z,96.03
2019-05-30T01:25:49.857Z,95.84
2019-05-30T01:26:49.831Z,96.12
2019-05-30T01:27:49.815Z,96.22
2019-05-30T01:28:49.790Z,96.22
2019-05-30T01:29:49.766Z,96.31
2019-05-30T01:30:59.512Z,96.12
2019-05-30T01:31:49.722Z,96.31
2019-05-30T01:32:49.706Z,96.50
2019-05-30T01:33:49.680Z,95.46
2019-05-30T01:34:49.659Z,95.84
2019-05-30T01:35:49.640Z,95.46
2019-05-30T01:36:49.614Z,94.79
2019-05-30T01:37:49.593Z,94.42
2019-05-30T01:38:49.575Z,94.89
2019-05-30T01:39:49.567Z,94.89
2019-05-30T01:40:49.525Z,94.79
2019-05-30T01:41:49.508Z,94.89
2019-05-30T01:42:49.484Z,96.03
2019-05-30T01:43:49.465Z,96.03
2019-05-30T01:44:49.440Z,96.50
2019-05-30T01:45:49.417Z,95.75
2019-05-30T01:46:49.395Z,96.41
2019-05-30T01:47:49.374Z,96.69
2019-05-30T01:48:49.351Z,96.31
2019-05-30T01:49:49.327Z,96.31
2019-05-30T01:50:49.311Z,96.03
2019-05-30T01:51:49.288Z,95.36
2019-05-30T01:52:49.268Z,95.36
2019-05-30T01:53:49.247Z,95.17
2019-05-30T01:54:49.219Z,96.03
2019-05-30T01:55:49.200Z,95.55
2019-05-30T01:56:49.177Z,95.55
2019-05-30T01:57:49.157Z,96.03
2019-05-30T01:58:49.141Z,96.22
2019-05-30T01:59:49.113Z,95.84
2019-05-30T02:00:49.090Z,95.94
2019-05-30T02:01:49.073Z,96.03
2019-05-30T02:02:49.047Z,96.50
2019-05-30T02:03:49.024Z,96.50
2019-05-30T02:04:49.071Z,96.31
2019-05-30T02:05:48.982Z,96.22
2019-05-30T02:06:48.966Z,96.41
2019-05-30T02:07:48.939Z,96.41
2019-05-30T02:08:48.922Z,96.03
2019-05-30T02:09:48.899Z,96.88
2019-05-30T02:10:48.882Z,96.22
2019-05-30T02:11:48.853Z,97.07
2019-05-30T02:12:48.832Z,96.50
2019-05-30T02:13:48.805Z,96.31
2019-05-30T02:14:48.783Z,96.41
2019-05-30T02:15:48.770Z,96.12
2019-05-30T02:16:48.752Z,96.12
2019-05-30T02:17:48.724Z,96.69
2019-05-30T02:18:48.700Z,96.03
2019-05-30T02:19:48.679Z,96.12
2019-05-30T02:20:48.655Z,95.65
2019-05-30T02:21:48.631Z,96.12
2019-05-30T02:22:48.610Z,96.74
2019-05-30T02:23:48.593Z,96.22
2019-05-30T02:24:48.570Z,96.45
2019-05-30T02:25:48.546Z,96.64
2019-05-30T02:26:48.527Z,97.31
2019-05-30T02:27:48.505Z,97.31
2019-05-30T02:28:48.480Z,96.93
2019-05-30T02:29:48.458Z,97.50
2019-05-30T02:30:48.437Z,97.31
2019-05-30T02:31:48.413Z,97.31
2019-05-30T02:32:48.398Z,97.97
2019-05-30T02:33:48.391Z,98.26
2019-05-30T02:34:48.351Z,97.97
2019-05-30T02:35:48.334Z,97.78
2019-05-30T02:36:48.305Z,98.07
2019-05-30T02:37:48.285Z,98.64
2019-05-30T02:38:48.258Z,98.45
2019-05-30T02:39:48.252Z,98.64
2019-05-30T02:40:48.216Z,98.54
2019-05-30T02:41:48.200Z,98.92
2019-05-30T02:42:48.175Z,98.45
2019-05-30T02:43:48.158Z,98.54
2019-05-30T02:44:48.134Z,98.54
2019-05-30T02:45:48.107Z,97.97
2019-05-30T02:46:48.086Z,97.97
2019-05-30T02:47:48.066Z,98.07
2019-05-30T02:48:58.687Z,97.78
2019-05-30T02:49:48.020Z,97.78
2019-05-30T02:50:48.000Z,97.97
2019-05-30T02:51:47.974Z,98.16
2019-05-30T02:52:47.964Z,97.60
2019-05-30T02:53:47.946Z,98.26
2019-05-30T02:54:47.909Z,98.26
2019-05-30T02:55:47.890Z,97.88
2019-05-30T02:56:47.870Z,98.35
2019-05-30T02:57:47.840Z,98.54
2019-05-30T02:58:47.818Z,98.45
2019-05-30T02:59:47.798Z,98.54
2019-05-30T03:00:47.783Z,97.97
2019-05-30T03:02:00.829Z,97.60
2019-05-30T03:02:47.733Z,97.50
2019-05-30T03:03:47.710Z,97.60
2019-05-30T03:04:47.691Z,97.69
2019-05-30T03:05:47.667Z,97.60
2019-05-30T03:06:47.647Z,97.12
2019-05-30T03:07:47.630Z,97.50
2019-05-30T03:08:47.598Z,97.78
2019-05-30T03:09:47.579Z,97.50
2019-05-30T03:10:47.560Z,97.31
2019-05-30T03:11:47.539Z,97.60
2019-05-30T03:12:47.509Z,97.31
2019-05-30T03:13:47.493Z,97.02
2019-05-30T03:14:47.473Z,97.97
2019-05-30T03:15:47.451Z,98.45
2019-05-30T03:16:47.427Z,97.88
2019-05-30T03:17:47.404Z,98.45
2019-05-30T03:18:47.377Z,98.16
2019-05-30T03:19:47.368Z,98.35
2019-05-30T03:20:47.338Z,98.16
2019-05-30T03:21:47.318Z,98.26
2019-05-30T03:22:47.333Z,98.26
2019-05-30T03:23:47.273Z,98.26
2019-05-30T03:24:47.251Z,98.45
2019-05-30T03:25:47.223Z,98.26
2019-05-30T03:26:47.204Z,97.88
2019-05-30T03:27:47.186Z,97.78
2019-05-30T03:28:47.156Z,97.69
2019-05-30T03:29:47.138Z,97.12
2019-05-30T03:30:47.125Z,97.31
2019-05-30T03:31:47.113Z,97.31
2019-05-30T03:33:05.770Z,97.69
2019-05-30T03:33:47.051Z,97.02
2019-05-30T03:34:47.050Z,97.41
2019-05-30T03:35:47.161Z,98.45
2019-05-30T03:36:46.987Z,98.54
2019-05-30T03:37:46.963Z,98.64
2019-05-30T03:38:46.941Z,98.35
2019-05-30T03:39:46.917Z,98.54
2019-05-30T03:40:46.894Z,98.45
2019-05-30T03:41:46.875Z,98.92
2019-05-30T03:42:46.852Z,98.92
2019-05-30T03:43:46.828Z,97.88
2019-05-30T03:44:46.811Z,97.41
2019-05-30T03:45:46.785Z,97.12
2019-05-30T03:46:46.773Z,97.12
2019-05-30T03:47:46.738Z,97.60
2019-05-30T03:48:46.739Z,97.27
2019-05-30T03:49:46.709Z,97.60
2019-05-30T03:50:46.772Z,97.36
2019-05-30T03:51:46.661Z,97.17
2019-05-30T03:53:49.639Z,96.79
2019-05-30T03:56:04.551Z,97.64
2019-05-30T03:57:01.754Z,97.17
2019-05-30T03:58:41.634Z,96.12
2019-05-30T03:59:41.609Z,96.69
2019-05-30T04:00:41.593Z,96.22
2019-05-30T04:01:41.567Z,96.22
2019-05-30T04:02:56.410Z,97.17
2019-05-30T04:03:41.521Z,96.88
2019-05-30T04:04:41.503Z,96.79
2019-05-30T04:05:41.478Z,96.60
2019-05-30T04:06:41.464Z,96.69
2019-05-30T04:07:41.434Z,96.50
2019-05-30T04:08:41.418Z,96.69
2019-05-30T04:09:44.073Z,96.41
2019-05-30T04:10:41.371Z,96.03
2019-05-30T04:11:41.350Z,96.88
2019-05-30T04:13:23.847Z,96.41
2019-05-30T04:14:23.823Z,96.88
2019-05-30T04:15:23.805Z,96.31
2019-05-30T04:16:23.785Z,96.31
2019-05-30T04:17:23.764Z,95.94
2019-05-30T04:18:23.738Z,96.41
2019-05-30T04:19:23.720Z,97.31
2019-05-30T04:20:23.695Z,96.45
2019-05-30T04:21:23.677Z,96.45
2019-05-30T04:22:23.803Z,96.36
2019-05-30T04:23:24.035Z,96.36
2019-05-30T04:24:23.608Z,97.03
2019-05-30T04:25:23.591Z,97.03
2019-05-30T04:26:23.568Z,96.17
2019-05-30T04:27:26.175Z,96.45
2019-05-30T04:28:23.523Z,96.45
2019-05-30T04:29:23.508Z,96.45
2019-05-30T04:30:23.482Z,96.36
2019-05-30T04:31:23.462Z,96.26
2019-05-30T04:32:23.437Z,95.89
2019-05-30T04:33:32.677Z,96.55
2019-05-30T04:34:23.395Z,96.55
2019-05-30T04:35:23.376Z,96.36
2019-05-30T04:36:23.354Z,96.12
2019-05-30T04:37:23.341Z,95.46
2019-05-30T04:38:23.313Z,94.79
2019-05-30T04:39:23.286Z,95.36
2019-05-30T04:40:23.267Z,95.17
2019-05-30T04:41:23.248Z,95.27
2019-05-30T04:42:23.223Z,94.98
2019-05-30T04:43:23.202Z,95.17
2019-05-30T04:44:23.183Z,94.70
2019-05-30T04:45:27.685Z,95.08
2019-05-30T04:46:23.144Z,94.89
2019-05-30T04:47:23.121Z,94.84
2019-05-30T04:48:23.093Z,94.60
2019-05-30T04:49:23.071Z,94.51
2019-05-30T04:50:23.053Z,94.08
2019-05-30T04:51:23.034Z,93.60
2019-05-30T04:52:24.929Z,92.94
2019-05-30T04:53:22.995Z,92.84
2019-05-30T04:54:22.964Z,92.18
2019-05-30T04:55:23.266Z,91.70
2019-05-30T04:56:22.925Z,91.99
2019-05-30T04:57:27.017Z,92.03
2019-05-30T04:58:24.404Z,91.42
2019-05-30T04:59:22.858Z,91.61
2019-05-30T05:00:22.841Z,91.37
2019-05-30T05:01:22.811Z,90.89
2019-05-30T05:02:23.389Z,90.70
2019-05-30T05:03:43.464Z,90.61
2019-05-30T05:04:22.747Z,90.32
2019-05-30T05:05:26.740Z,90.70
2019-05-30T05:06:22.706Z,90.80
2019-05-30T05:07:22.682Z,90.32
2019-05-30T05:08:22.675Z,89.65
2019-05-30T05:09:22.644Z,89.41
2019-05-30T05:10:22.699Z,89.98
2019-05-30T05:11:25.109Z,89.89
2019-05-30T05:12:22.573Z,89.70
2019-05-30T05:13:22.732Z,89.03
2019-05-30T05:14:22.822Z,88.84
2019-05-30T05:15:22.850Z,87.98
2019-05-30T05:16:34.494Z,87.89
2019-05-30T05:17:23.137Z,87.65
2019-05-30T05:18:23.440Z,87.46
2019-05-30T05:19:25.672Z,88.12
2019-05-30T05:20:23.502Z,87.55
2019-05-30T05:21:23.100Z,87.07
2019-05-30T05:22:23.367Z,87.17
2019-05-30T05:23:23.409Z,86.69
2019-05-30T05:24:23.530Z,85.64
2019-05-30T05:25:23.513Z,85.74
2019-05-30T05:26:22.278Z,85.60
2019-05-30T05:27:22.253Z,85.69
2019-05-30T05:28:22.241Z,85.41
2019-05-30T05:29:22.214Z,84.55
2019-05-30T05:30:22.489Z,85.02
2019-05-30T05:31:22.492Z,84.45
2019-05-30T05:32:22.629Z,83.88
2019-05-30T05:33:22.660Z,83.69
2019-05-30T05:34:22.775Z,84.20
2019-05-30T05:35:23.027Z,83.54
2019-05-30T05:36:23.073Z,83.44
2019-05-30T05:37:23.238Z,83.44
2019-05-30T05:38:22.417Z,83.16
2019-05-30T05:39:22.318Z,83.35
2019-05-30T05:40:22.442Z,83.64
2019-05-30T05:41:22.295Z,83.16
2019-05-30T05:42:22.498Z,83.64
2019-05-30T05:43:22.466Z,82.59
2019-05-30T05:44:22.467Z,82.01
2019-05-30T05:45:22.805Z,81.82
2019-05-30T05:46:22.572Z,82.15
2019-05-30T05:47:22.794Z,81.67
2019-05-30T05:48:22.588Z,81.29
2019-05-30T05:49:22.610Z,81.01
2019-05-30T05:50:22.563Z,81.38
2019-05-30T05:51:22.780Z,80.43
2019-05-30T05:52:22.744Z,79.96
2019-05-30T05:53:22.949Z,80.81
2019-05-30T05:54:22.900Z,80.53
2019-05-30T05:55:22.845Z,80.57
2019-05-30T05:56:22.823Z,80.47
2019-05-30T05:57:22.846Z,79.80
2019-05-30T05:58:23.716Z,79.90
2019-05-30T05:59:21.584Z,79.90
2019-05-30T06:00:21.556Z,79.52
2019-05-30T06:01:21.595Z,78.85
2019-05-30T06:02:21.516Z,79.14
2019-05-30T06:03:22.242Z,79.43
2019-05-30T06:04:21.476Z,79.23
2019-05-30T06:05:22.265Z,79.80
2019-05-30T06:06:21.437Z,79.17
2019-05-30T06:07:22.415Z,78.41
2019-05-30T06:08:21.566Z,77.55
2019-05-30T06:09:22.503Z,78.31
2019-05-30T06:10:21.800Z,77.65
2019-05-30T06:11:22.620Z,76.88
2019-05-30T06:12:21.751Z,76.79
2019-05-30T06:13:21.289Z,77.36
2019-05-30T06:14:21.920Z,76.92
2019-05-30T06:15:21.256Z,76.06
2019-05-30T06:16:21.987Z,76.16
2019-05-30T06:18:33.803Z,75.87
2019-05-30T06:19:45.873Z,75.59
2019-05-30T06:20:33.757Z,75.68
2019-05-30T06:21:33.744Z,76.25
2019-05-30T06:22:33.716Z,75.68
2019-05-30T06:23:33.724Z,75.01
2019-05-30T06:24:33.675Z,74.82
2019-05-30T06:25:33.657Z,74.73
2019-05-30T06:26:33.650Z,74.85
2019-05-30T06:27:33.614Z,74.76
2019-05-30T06:28:33.596Z,74.66
2019-05-30T06:29:33.577Z,74.85
2019-05-30T06:30:33.565Z,74.66
2019-05-30T06:31:33.535Z,74.66
2019-05-30T06:32:33.519Z,74.28
2019-05-30T06:33:33.496Z,73.43
2019-05-30T06:34:39.167Z,73.71
2019-05-30T06:35:33.458Z,74.19
2019-05-30T06:36:33.441Z,73.61
2019-05-30T06:37:33.419Z,73.80
2019-05-30T06:38:33.407Z,74.09
2019-05-30T06:39:33.387Z,73.94
2019-05-30T06:40:33.365Z,74.99
2019-05-30T06:41:33.343Z,73.27
2019-05-30T06:42:33.320Z,72.31
2019-05-30T06:43:33.302Z,71.36
2019-05-30T06:44:33.281Z,70.40
2019-05-30T06:45:33.259Z,70.91
2019-05-30T06:50:52.317Z,69.48
2019-05-30T06:51:52.300Z,69.38
2019-05-30T06:52:52.284Z,69.67
2019-05-30T06:56:36.142Z,69.86
2019-05-30T06:58:47.896Z,69.70
2019-05-30T07:32:34.455Z,60.72
2019-05-30T07:53:37.367Z,44.20
2019-05-30T07:54:37.354Z,44.20
2019-05-30T07:58:08.354Z,43.40
2019-05-30T07:59:08.332Z,41.94
2019-05-30T08:00:08.317Z,41.35
2019-05-30T08:01:08.304Z,41.56
2019-05-30T08:02:08.288Z,41.27
2019-05-30T08:03:08.270Z,40.20
2019-05-30T08:04:08.260Z,40.32
2019-05-30T08:06:35.879Z,39.95
2019-05-30T08:08:23.413Z,40.77
2019-05-30T08:09:23.402Z,38.95
2019-05-30T08:10:23.389Z,38.19
2019-05-30T08:13:06.674Z,37.24
2019-05-30T08:14:06.661Z,36.76
2019-05-30T08:15:06.651Z,36.64
2019-05-30T08:16:06.644Z,37.32
2019-05-30T08:17:06.633Z,37.71
2019-05-30T08:18:06.626Z,37.82
2019-05-30T08:19:06.617Z,37.51
2019-05-30T08:20:06.602Z,38.70
2019-05-30T08:21:06.906Z,37.92
2019-05-30T08:22:06.593Z,36.00
2019-05-30T08:23:09.696Z,35.51
2019-05-30T08:24:06.576Z,36.30
2019-05-30T08:27:47.637Z,36.42
2019-05-30T08:28:47.660Z,35.86
2019-05-30T08:29:47.623Z,35.08
2019-05-30T08:30:47.620Z,34.69
2019-05-30T08:31:47.613Z,35.49
2019-05-30T08:32:47.607Z,34.03
2019-05-30T08:33:47.647Z,34.03
2019-05-30T08:39:31.571Z,33.73
2019-05-30T08:50:23.531Z,31.04
2019-05-30T08:51:23.524Z,31.13
2019-05-30T08:53:23.520Z,31.13
2019-05-30T08:54:23.519Z,30.93
2019-05-30T08:55:23.516Z,30.62
2019-05-30T08:56:23.516Z,31.40
2019-05-30T08:57:23.517Z,31.87
2019-05-30T08:58:23.515Z,32.26
2019-05-30T08:59:23.512Z,32.24
2019-05-30T09:00:23.511Z,32.44
2019-05-30T09:02:23.507Z,33.49
2019-05-30T09:03:23.512Z,33.88
2019-05-30T09:15:15.259Z,32.65
2019-05-30T09:16:15.260Z,32.65
2019-05-30T09:17:15.252Z,34.20
2019-05-30T09:18:15.249Z,34.42
2019-05-30T09:19:15.252Z,32.67
2019-05-30T09:20:15.258Z,31.98
2019-05-30T09:21:15.248Z,32.44
2019-05-30T09:22:15.247Z,33.22
2019-05-30T09:23:15.249Z,32.82
2019-05-30T09:24:15.247Z,33.70
2019-05-30T09:25:15.249Z,33.31
2019-05-30T09:26:15.248Z,32.92
2019-05-30T09:27:15.249Z,34.38
2019-05-30T09:28:15.252Z,33.02
2019-05-30T09:29:15.261Z,33.72
2019-05-30T09:30:15.456Z,33.06
2019-05-30T09:36:25.186Z,31.88
2019-05-30T09:37:25.182Z,31.38
2019-05-30T09:38:25.186Z,33.04
2019-05-30T09:39:25.189Z,34.61
2019-05-30T09:40:25.182Z,33.17
2019-05-30T09:41:25.184Z,31.60
2019-05-30T09:42:25.182Z,32.96
2019-05-30T09:43:25.184Z,31.88
2019-05-30T09:44:25.186Z,31.97
2019-05-30T09:45:25.186Z,32.64
2019-05-30T09:46:25.186Z,32.34
2019-05-30T09:47:25.186Z,32.54
2019-05-30T09:48:25.186Z,33.29
2019-05-30T09:49:25.188Z,33.11
2019-05-30T09:50:25.194Z,34.19
2019-05-30T09:51:25.188Z,33.91
2019-05-30T09:52:25.196Z,33.53
2019-05-30T09:53:25.188Z,33.23
2019-05-30T09:54:25.190Z,32.94
2019-05-30T09:55:25.191Z,33.34
2019-05-30T09:56:25.186Z,32.37
2019-05-30T09:57:25.192Z,31.88
2019-05-30T09:58:25.189Z,33.36
2019-05-30T09:59:25.191Z,32.59
2019-05-30T10:00:25.194Z,31.60
2019-05-30T10:01:25.190Z,31.50
2019-05-30T10:02:25.194Z,33.07
2019-05-30T10:03:25.195Z,32.59
2019-05-30T10:04:25.235Z,32.40
2019-05-30T10:05:25.207Z,31.92
2019-05-30T10:06:29.417Z,31.82
2019-05-30T10:07:25.206Z,31.61
2019-05-30T10:08:25.195Z,32.11
2019-05-30T10:09:25.199Z,31.64
2019-05-30T10:10:25.196Z,31.93
2019-05-30T10:11:25.528Z,31.45
2019-05-30T10:12:25.197Z,31.64
2019-05-30T10:13:25.200Z,31.76
2019-05-30T10:14:25.198Z,31.56
2019-05-30T10:15:25.203Z,31.09
2019-05-30T10:16:25.204Z,31.28
2019-05-30T10:17:25.203Z,31.38
2019-05-30T10:18:25.202Z,32.28
2019-05-30T10:19:25.203Z,31.51
2019-05-30T10:20:25.211Z,29.75
2019-05-30T10:21:25.203Z,30.55
2019-05-30T10:22:25.204Z,28.89
2019-05-30T10:23:25.204Z,29.18
2019-05-30T10:24:25.203Z,30.77
2019-05-30T10:25:25.255Z,28.82
2019-05-30T10:26:25.208Z,27.65
2019-05-30T10:27:25.208Z,27.26
2019-05-30T10:28:25.211Z,27.65
2019-05-30T10:29:25.269Z,27.37
2019-05-30T10:30:25.214Z,27.06
2019-05-30T10:31:25.213Z,27.65
2019-05-30T10:32:25.218Z,27.84
2019-05-30T10:33:25.213Z,27.55
2019-05-30T10:34:25.224Z,27.65
2019-05-30T10:35:25.250Z,28.53
2019-05-30T10:36:25.223Z,27.75
2019-05-30T10:37:25.222Z,27.65
2019-05-30T10:38:25.235Z,27.56
2019-05-30T10:39:25.229Z,27.56
2019-05-30T10:40:25.222Z,27.77
2019-05-30T10:41:25.222Z,27.10
2019-05-30T10:43:12.981Z,25.85
2019-05-30T10:44:12.975Z,25.66
2019-05-30T10:45:12.997Z,26.67
2019-05-30T10:46:16.226Z,25.11
2019-05-30T10:47:13.017Z,25.40
2019-05-30T10:48:13.033Z,25.59
2019-05-30T10:49:12.987Z,25.48
2019-05-30T10:50:12.985Z,25.98
2019-05-30T10:51:12.993Z,25.78
2019-05-30T10:52:12.989Z,25.68
2019-05-30T10:53:12.991Z,25.49
2019-05-30T10:54:12.995Z,25.59
2019-05-30T10:55:12.993Z,25.20
2019-05-30T10:56:12.995Z,24.51
2019-05-30T10:57:12.997Z,25.49
2019-05-30T11:01:39.640Z,24.53
2019-05-30T11:02:39.641Z,24.53
2019-05-30T11:03:39.642Z,24.35
2019-05-30T11:04:39.641Z,22.96
2019-05-30T11:05:39.647Z,23.24
2019-05-30T11:06:39.647Z,23.42
2019-05-30T11:07:53.231Z,24.30
2019-05-30T11:08:39.649Z,25.57
2019-05-30T11:09:39.646Z,24.30
2019-05-30T11:10:39.661Z,24.30
2019-05-30T11:11:39.673Z,25.10
2019-05-30T11:12:39.659Z,25.20
2019-05-30T11:13:39.658Z,25.10
2019-05-30T11:14:39.658Z,23.91
2019-05-30T11:15:39.666Z,23.90
2019-05-30T11:16:39.665Z,23.88
2019-05-30T11:17:39.669Z,25.26
2019-05-30T11:18:39.667Z,25.27
2019-05-30T11:19:39.673Z,24.40
2019-05-30T11:20:39.674Z,24.49
2019-05-30T11:21:39.674Z,24.40
2019-05-30T11:22:39.685Z,25.07
2019-05-30T11:23:39.691Z,25.18
2019-05-30T11:24:39.683Z,24.99
2019-05-30T11:25:39.689Z,24.21
2019-05-30T11:26:39.686Z,24.29
2019-05-30T11:27:39.688Z,24.96
2019-05-30T11:28:39.694Z,25.55
2019-05-30T11:29:39.695Z,25.45
2019-05-30T11:30:39.702Z,25.27
2019-05-30T11:31:39.699Z,25.45
2019-05-30T11:32:39.718Z,25.55
2019-05-30T11:33:39.723Z,25.13
2019-05-30T11:34:39.706Z,25.43
2019-05-30T11:35:39.707Z,25.72
2019-05-30T11:36:39.711Z,25.13
2019-05-30T11:37:39.710Z,25.54
2019-05-30T11:38:39.717Z,25.05
2019-05-30T11:39:39.719Z,24.85
2019-05-30T11:40:39.719Z,25.24
2019-05-30T11:41:39.717Z,25.16
2019-05-30T11:42:39.718Z,25.45
2019-05-30T11:43:39.721Z,26.53
2019-05-30T11:44:39.725Z,25.06
2019-05-30T11:45:39.725Z,24.44
2019-05-30T11:46:39.727Z,25.51
2019-05-30T11:47:39.731Z,26.40
2019-05-30T11:48:39.731Z,25.73
2019-05-30T11:49:39.737Z,25.33
2019-05-30T11:50:39.736Z,25.42
2019-05-30T11:51:39.735Z,26.48
2019-05-30T11:52:39.741Z,26.88
2019-05-30T11:53:39.738Z,26.98
2019-05-30T11:54:39.741Z,26.68
2019-05-30T11:55:39.744Z,27.08
2019-05-30T11:56:39.745Z,26.79
2019-05-30T11:57:39.743Z,26.21
2019-05-30T11:58:39.749Z,26.71
2019-05-30T11:59:39.753Z,27.90
2019-05-30T12:00:39.751Z,26.15
2019-05-30T12:01:39.752Z,25.56
2019-05-30T12:02:39.751Z,25.09
2019-05-30T12:03:39.763Z,25.09
2019-05-30T12:04:39.755Z,25.48
2019-05-30T12:05:39.766Z,25.48
2019-05-30T12:06:39.757Z,25.68
2019-05-30T12:07:39.760Z,25.61
2019-05-30T12:08:39.758Z,24.15
2019-05-30T12:09:39.757Z,23.94
2019-05-30T12:10:39.765Z,24.42
2019-05-30T12:11:39.765Z,24.98
2019-05-30T12:12:39.766Z,25.28
2019-05-30T12:13:39.772Z,25.57
2019-05-30T12:14:39.762Z,24.86
2019-05-30T12:15:39.767Z,25.34
2019-05-30T12:16:39.764Z,25.15
2019-05-30T12:17:39.762Z,25.92
2019-05-30T12:18:39.762Z,26.61
2019-05-30T12:19:39.762Z,25.63
2019-05-30T12:20:39.767Z,25.63
2019-05-30T12:21:39.766Z,26.03
2019-05-30T12:22:39.769Z,25.54
2019-05-30T12:23:39.771Z,26.29
2019-05-30T12:24:39.798Z,26.28
2019-05-30T12:25:39.764Z,26.48
2019-05-30T12:26:39.778Z,27.45
2019-05-30T12:27:39.764Z,27.06
2019-05-30T12:30:23.058Z,27.98
2019-05-30T12:31:23.062Z,25.56
2019-05-30T12:32:23.066Z,26.06
2019-05-30T12:33:23.068Z,27.56
2019-05-30T12:37:29.215Z,24.52
2019-05-30T12:38:29.193Z,24.53
2019-05-30T12:39:29.193Z,24.22
2019-05-30T12:40:29.194Z,25.18
2019-05-30T12:41:29.186Z,24.36
2019-05-30T12:42:29.187Z,26.98
2019-05-30T12:43:29.188Z,26.68
2019-05-30T12:44:30.196Z,26.48
2019-05-30T12:45:29.183Z,27.42
2019-05-30T12:51:39.116Z,28.94
2019-05-30T12:52:39.149Z,28.74
2019-05-30T12:53:39.116Z,29.61
2019-05-30T12:54:39.114Z,29.32
2019-05-30T12:55:39.106Z,30.10
2019-05-30T12:56:39.104Z,30.90
2019-05-30T12:57:39.104Z,29.53
2019-05-30T12:58:39.142Z,30.51
2019-05-30T12:59:39.102Z,30.31
2019-05-30T13:00:39.102Z,29.81
2019-05-30T13:01:39.098Z,29.61
2019-05-30T13:02:39.095Z,30.49
2019-05-30T13:03:39.098Z,31.27
2019-05-30T13:04:39.092Z,30.47
2019-05-30T13:05:39.085Z,30.47
2019-05-30T13:06:39.087Z,30.57
2019-05-30T13:07:39.082Z,31.04
2019-05-30T13:08:39.078Z,30.65
2019-05-30T13:12:50.003Z,32.08
2019-05-30T13:13:49.997Z,32.67
2019-05-30T13:14:49.997Z,31.88
2019-05-30T13:15:49.990Z,31.88
2019-05-30T13:16:49.984Z,32.76
2019-05-30T13:21:59.283Z,33.41
2019-05-30T13:22:59.125Z,34.28
2019-05-30T13:23:59.595Z,33.12
2019-05-30T13:24:59.693Z,33.80
2019-05-30T13:25:59.571Z,33.31
2019-05-30T13:26:59.667Z,33.61
2019-05-30T13:28:02.985Z,33.51
2019-05-30T13:29:00.299Z,34.77
2019-05-30T13:29:59.966Z,34.09
2019-05-30T13:31:00.230Z,33.02
2019-05-30T13:32:00.394Z,33.70
2019-05-30T13:32:59.063Z,33.51
2019-05-30T13:33:59.060Z,33.51
2019-05-30T13:34:59.246Z,34.19
2019-05-30T13:35:59.050Z,35.06
2019-05-30T13:46:27.499Z,36.21
2019-05-30T13:47:24.879Z,35.82
2019-05-30T13:48:24.866Z,35.33
2019-05-30T13:49:27.477Z,34.66
2019-05-30T13:50:24.851Z,35.53
2019-05-30T13:51:24.841Z,36.11
2019-05-30T13:52:24.835Z,35.53
2019-05-30T13:53:24.835Z,35.33
2019-05-30T13:54:25.149Z,35.63
2019-05-30T13:55:28.080Z,34.95
2019-05-30T13:56:24.810Z,35.41
2019-05-30T13:57:24.804Z,35.51
2019-05-30T13:58:24.796Z,35.22
2019-05-30T13:59:24.787Z,35.90
2019-05-30T14:00:24.785Z,36.58
2019-05-30T14:01:24.773Z,35.90
2019-05-30T14:02:24.771Z,35.41
2019-05-30T14:03:24.767Z,35.78
2019-05-30T14:04:24.749Z,35.98
2019-05-30T14:05:24.743Z,35.98
2019-05-30T14:06:24.734Z,35.98
2019-05-30T14:07:24.744Z,36.25
2019-05-30T14:08:24.721Z,35.86
2019-05-30T14:09:24.711Z,35.96
2019-05-30T14:10:24.704Z,36.06
2019-05-30T14:11:24.694Z,36.74
2019-05-30T14:12:24.685Z,37.23
2019-05-30T14:13:24.679Z,37.32
2019-05-30T14:14:24.674Z,37.23
2019-05-30T14:15:24.663Z,37.43
2019-05-30T14:16:24.658Z,37.92
2019-05-30T14:17:24.642Z,37.15
2019-05-30T14:18:24.637Z,37.34
2019-05-30T14:19:25.237Z,37.16
2019-05-30T14:20:24.624Z,37.07
2019-05-30T14:21:24.613Z,37.35
2019-05-30T14:22:24.618Z,36.58
2019-05-30T14:23:24.601Z,38.04
2019-05-30T14:24:24.586Z,37.07
2019-05-30T14:25:24.585Z,36.10
2019-05-30T14:26:24.575Z,37.37
2019-05-30T14:27:24.564Z,36.89
2019-05-30T14:28:24.569Z,37.84
2019-05-30T14:29:27.921Z,39.01
2019-05-30T14:30:24.539Z,36.87
2019-05-30T14:31:24.531Z,37.86
2019-05-30T14:32:24.522Z,38.23
2019-05-30T14:33:24.517Z,36.87
2019-05-30T14:34:24.513Z,38.13
2019-05-30T14:35:24.508Z,36.77
2019-05-30T14:36:24.489Z,36.95
2019-05-30T14:37:24.482Z,37.92
2019-05-30T14:38:24.473Z,38.31
2019-05-30T14:39:24.477Z,37.82
2019-05-30T14:40:24.459Z,37.92
2019-05-30T14:41:24.446Z,38.12
2019-05-30T14:42:24.441Z,38.31
2019-05-30T14:43:24.429Z,38.48
2019-05-30T14:44:25.869Z,38.78
2019-05-30T14:45:27.739Z,38.27
2019-05-30T14:46:24.410Z,38.27
2019-05-30T14:47:24.392Z,38.66
2019-05-30T14:48:24.388Z,38.95
2019-05-30T14:49:24.383Z,39.34
2019-05-30T14:50:24.367Z,38.07
2019-05-30T14:51:24.360Z,38.95
2019-05-30T14:52:24.354Z,38.06
2019-05-30T14:53:24.348Z,39.12
2019-05-30T14:54:24.335Z,39.12
2019-05-30T14:55:24.324Z,39.12
2019-05-30T14:56:24.316Z,38.83
2019-05-30T14:57:24.347Z,39.32
2019-05-30T14:58:24.300Z,40.00
2019-05-30T14:59:24.296Z,40.38
2019-05-30T15:00:24.277Z,40.58
2019-05-30T15:02:24.263Z,39.41
2019-05-30T15:05:21.808Z,39.78
2019-05-30T15:06:21.831Z,41.04
2019-05-30T15:07:21.782Z,40.46
2019-05-30T15:08:21.783Z,40.07
2019-05-30T15:09:25.927Z,40.17
2019-05-30T15:10:21.760Z,39.59
2019-05-30T15:11:21.767Z,40.17
2019-05-30T15:12:21.740Z,40.07
2019-05-30T15:13:21.732Z,40.65
2019-05-30T15:14:21.722Z,40.46